sensor_id;sensor_type;location;lat;lon;timestamp;P1;durP1;ratioP1;P2;durP2;ratioP2
56242;SDS011;42155;53.096;23.226;2022-08-19T00:00:38;17.20;;;10.23;;
56242;SDS011;42155;53.096;23.226;2022-08-19T00:02:39;16.92;;;11.05;;
56242;SDS011;42155;53.096;23.226;2022-08-19T00:04:40;20.88;;;11.57;;
56242;SDS011;42155;53.096;23.226;2022-08-19T00:06:41;23.88;;;12.77;;
56242;SDS011;42155;53.096;23.226;2022-08-19T00:08:44;21.13;;;11.88;;
56242;SDS011;42155;53.096;23.226;2022-08-19T00:10:44;21.25;;;11.82;;
56242;SDS011;42155;53.096;23.226;2022-08-19T00:12:45;21.58;;;13.25;;
56242;SDS011;42155;53.096;23.226;2022-08-19T00:14:45;18.63;;;12.63;;
56242;SDS011;42155;53.096;23.226;2022-08-19T00:16:46;22.02;;;13.60;;
56242;SDS011;42155;53.096;23.226;2022-08-19T00:18:47;24.95;;;13.68;;
56242;SDS011;42155;53.096;23.226;2022-08-19T00:20:48;23.63;;;13.63;;
56242;SDS011;42155;53.096;23.226;2022-08-19T00:22:48;21.95;;;13.77;;
56242;SDS011;42155;53.096;23.226;2022-08-19T00:24:49;21.60;;;14.35;;
56242;SDS011;42155;53.096;23.226;2022-08-19T00:26:49;23.77;;;14.55;;
56242;SDS011;42155;53.096;23.226;2022-08-19T00:28:50;21.38;;;13.10;;
56242;SDS011;42155;53.096;23.226;2022-08-19T00:30:50;24.13;;;12.93;;
56242;SDS011;42155;53.096;23.226;2022-08-19T00:32:51;18.23;;;12.55;;
56242;SDS011;42155;53.096;23.226;2022-08-19T00:34:51;21.67;;;12.85;;
56242;SDS011;42155;53.096;23.226;2022-08-19T00:36:52;17.90;;;11.98;;
56242;SDS011;42155;53.096;23.226;2022-08-19T00:38:52;18.63;;;11.25;;
56242;SDS011;42155;53.096;23.226;2022-08-19T00:40:53;13.40;;;9.93;;
56242;SDS011;42155;53.096;23.226;2022-08-19T00:42:53;19.45;;;12.63;;
56242;SDS011;42155;53.096;23.226;2022-08-19T00:44:54;13.88;;;9.77;;
56242;SDS011;42155;53.096;23.226;2022-08-19T00:46:55;15.20;;;10.50;;
56242;SDS011;42155;53.096;23.226;2022-08-19T00:48:57;18.38;;;10.70;;
56242;SDS011;42155;53.096;23.226;2022-08-19T00:50:59;17.10;;;12.10;;
56242;SDS011;42155;53.096;23.226;2022-08-19T00:53:00;17.25;;;11.70;;
56242;SDS011;42155;53.096;23.226;2022-08-19T00:55:02;20.25;;;12.55;;
56242;SDS011;42155;53.096;23.226;2022-08-19T00:57:04;17.83;;;11.15;;
56242;SDS011;42155;53.096;23.226;2022-08-19T00:59:10;18.50;;;11.00;;
56242;SDS011;42155;53.096;23.226;2022-08-19T01:01:11;14.35;;;10.52;;
56242;SDS011;42155;53.096;23.226;2022-08-19T01:03:14;17.13;;;11.40;;
56242;SDS011;42155;53.096;23.226;2022-08-19T01:05:17;17.92;;;10.85;;
56242;SDS011;42155;53.096;23.226;2022-08-19T01:07:21;16.95;;;10.68;;
56242;SDS011;42155;53.096;23.226;2022-08-19T01:09:21;17.60;;;11.65;;
56242;SDS011;42155;53.096;23.226;2022-08-19T01:11:22;18.20;;;10.13;;
56242;SDS011;42155;53.096;23.226;2022-08-19T01:13:24;15.98;;;10.63;;
56242;SDS011;42155;53.096;23.226;2022-08-19T01:15:29;12.43;;;9.95;;
56242;SDS011;42155;53.096;23.226;2022-08-19T01:17:33;15.25;;;9.20;;
56242;SDS011;42155;53.096;23.226;2022-08-19T01:19:37;14.15;;;9.77;;
56242;SDS011;42155;53.096;23.226;2022-08-19T01:21:41;16.20;;;11.55;;
56242;SDS011;42155;53.096;23.226;2022-08-19T01:23:48;18.83;;;9.75;;
56242;SDS011;42155;53.096;23.226;2022-08-19T01:25:49;17.35;;;11.73;;
56242;SDS011;42155;53.096;23.226;2022-08-19T01:27:52;15.82;;;11.23;;
56242;SDS011;42155;53.096;23.226;2022-08-19T01:29:52;18.88;;;11.82;;
56242;SDS011;42155;53.096;23.226;2022-08-19T01:31:53;14.93;;;9.95;;
56242;SDS011;42155;53.096;23.226;2022-08-19T01:33:55;18.92;;;11.10;;
56242;SDS011;42155;53.096;23.226;2022-08-19T01:36:13;16.63;;;10.55;;
56242;SDS011;42155;53.096;23.226;2022-08-19T01:38:20;17.83;;;10.65;;
56242;SDS011;42155;53.096;23.226;2022-08-19T01:40:26;17.23;;;10.60;;
56242;SDS011;42155;53.096;23.226;2022-08-19T01:42:30;16.52;;;10.30;;
56242;SDS011;42155;53.096;23.226;2022-08-19T01:44:30;18.75;;;10.15;;
56242;SDS011;42155;53.096;23.226;2022-08-19T01:46:31;16.60;;;10.07;;
56242;SDS011;42155;53.096;23.226;2022-08-19T01:48:36;13.52;;;9.80;;
56242;SDS011;42155;53.096;23.226;2022-08-19T01:50:38;18.10;;;9.52;;
56242;SDS011;42155;53.096;23.226;2022-08-19T01:52:40;14.90;;;9.35;;
56242;SDS011;42155;53.096;23.226;2022-08-19T01:54:41;17.02;;;9.88;;
56242;SDS011;42155;53.096;23.226;2022-08-19T01:56:42;13.60;;;9.43;;
56242;SDS011;42155;53.096;23.226;2022-08-19T01:58:44;17.60;;;9.88;;
56242;SDS011;42155;53.096;23.226;2022-08-19T02:00:49;18.83;;;9.23;;
56242;SDS011;42155;53.096;23.226;2022-08-19T02:02:50;13.88;;;10.55;;
56242;SDS011;42155;53.096;23.226;2022-08-19T02:04:50;13.85;;;9.45;;
56242;SDS011;42155;53.096;23.226;2022-08-19T02:06:50;12.90;;;9.38;;
56242;SDS011;42155;53.096;23.226;2022-08-19T02:08:51;16.58;;;9.45;;
56242;SDS011;42155;53.096;23.226;2022-08-19T02:10:51;17.65;;;10.35;;
56242;SDS011;42155;53.096;23.226;2022-08-19T02:12:52;13.35;;;8.88;;
56242;SDS011;42155;53.096;23.226;2022-08-19T02:14:52;14.77;;;9.48;;
56242;SDS011;42155;53.096;23.226;2022-08-19T02:16:52;11.80;;;8.45;;
56242;SDS011;42155;53.096;23.226;2022-08-19T02:18:53;12.05;;;9.48;;
56242;SDS011;42155;53.096;23.226;2022-08-19T02:20:53;17.25;;;9.07;;
56242;SDS011;42155;53.096;23.226;2022-08-19T02:22:56;13.90;;;9.40;;
56242;SDS011;42155;53.096;23.226;2022-08-19T02:24:56;10.50;;;8.73;;
56242;SDS011;42155;53.096;23.226;2022-08-19T02:26:56;12.85;;;9.23;;
56242;SDS011;42155;53.096;23.226;2022-08-19T02:28:57;15.38;;;9.80;;
56242;SDS011;42155;53.096;23.226;2022-08-19T02:30:57;16.30;;;9.40;;
56242;SDS011;42155;53.096;23.226;2022-08-19T02:32:58;12.80;;;8.45;;
56242;SDS011;42155;53.096;23.226;2022-08-19T02:34:58;12.60;;;8.38;;
56242;SDS011;42155;53.096;23.226;2022-08-19T02:36:58;17.17;;;9.68;;
56242;SDS011;42155;53.096;23.226;2022-08-19T02:38:59;16.75;;;9.52;;
56242;SDS011;42155;53.096;23.226;2022-08-19T02:41:04;14.68;;;9.82;;
56242;SDS011;42155;53.096;23.226;2022-08-19T02:43:07;12.18;;;8.50;;
56242;SDS011;42155;53.096;23.226;2022-08-19T02:45:08;12.48;;;8.13;;
56242;SDS011;42155;53.096;23.226;2022-08-19T02:47:09;14.75;;;8.80;;
56242;SDS011;42155;53.096;23.226;2022-08-19T02:49:10;17.65;;;8.90;;
56242;SDS011;42155;53.096;23.226;2022-08-19T02:51:15;15.50;;;9.40;;
56242;SDS011;42155;53.096;23.226;2022-08-19T02:53:24;14.18;;;8.73;;
56242;SDS011;42155;53.096;23.226;2022-08-19T02:55:27;12.63;;;8.10;;
56242;SDS011;42155;53.096;23.226;2022-08-19T02:57:27;14.07;;;8.02;;
56242;SDS011;42155;53.096;23.226;2022-08-19T02:59:30;10.95;;;7.68;;
56242;SDS011;42155;53.096;23.226;2022-08-19T03:01:32;12.43;;;8.30;;
56242;SDS011;42155;53.096;23.226;2022-08-19T03:03:32;11.18;;;8.50;;
56242;SDS011;42155;53.096;23.226;2022-08-19T03:05:33;15.40;;;8.57;;
56242;SDS011;42155;53.096;23.226;2022-08-19T03:07:33;15.57;;;9.27;;
56242;SDS011;42155;53.096;23.226;2022-08-19T03:09:35;13.10;;;9.25;;
56242;SDS011;42155;53.096;23.226;2022-08-19T03:11:37;11.45;;;8.32;;
56242;SDS011;42155;53.096;23.226;2022-08-19T03:13:38;15.43;;;9.15;;
56242;SDS011;42155;53.096;23.226;2022-08-19T03:15:39;18.33;;;9.80;;
56242;SDS011;42155;53.096;23.226;2022-08-19T03:17:41;12.73;;;9.50;;
56242;SDS011;42155;53.096;23.226;2022-08-19T03:19:41;14.98;;;8.98;;
56242;SDS011;42155;53.096;23.226;2022-08-19T03:21:42;13.70;;;9.43;;
56242;SDS011;42155;53.096;23.226;2022-08-19T03:23:43;13.07;;;9.25;;
56242;SDS011;42155;53.096;23.226;2022-08-19T03:25:45;18.77;;;9.63;;
56242;SDS011;42155;53.096;23.226;2022-08-19T03:27:47;21.15;;;10.68;;
56242;SDS011;42155;53.096;23.226;2022-08-19T03:29:48;14.60;;;10.15;;
56242;SDS011;42155;53.096;23.226;2022-08-19T03:31:48;15.80;;;10.18;;
56242;SDS011;42155;53.096;23.226;2022-08-19T03:33:49;16.88;;;10.27;;
56242;SDS011;42155;53.096;23.226;2022-08-19T03:38:22;19.25;;;10.65;;
56242;SDS011;42155;53.096;23.226;2022-08-19T03:40:22;16.90;;;9.90;;
56242;SDS011;42155;53.096;23.226;2022-08-19T03:42:22;14.77;;;9.88;;
56242;SDS011;42155;53.096;23.226;2022-08-19T03:44:23;13.85;;;9.38;;
56242;SDS011;42155;53.096;23.226;2022-08-19T03:46:24;14.93;;;9.50;;
56242;SDS011;42155;53.096;23.226;2022-08-19T03:48:27;15.30;;;10.02;;
56242;SDS011;42155;53.096;23.226;2022-08-19T03:50:28;14.05;;;9.48;;
56242;SDS011;42155;53.096;23.226;2022-08-19T03:52:28;18.30;;;9.82;;
56242;SDS011;42155;53.096;23.226;2022-08-19T03:54:28;14.93;;;9.43;;
56242;SDS011;42155;53.096;23.226;2022-08-19T03:56:29;18.80;;;10.20;;
56242;SDS011;42155;53.096;23.226;2022-08-19T03:58:30;14.32;;;9.38;;
56242;SDS011;42155;53.096;23.226;2022-08-19T04:00:30;16.08;;;8.82;;
56242;SDS011;42155;53.096;23.226;2022-08-19T04:02:30;15.93;;;8.63;;
56242;SDS011;42155;53.096;23.226;2022-08-19T04:04:31;15.18;;;9.32;;
56242;SDS011;42155;53.096;23.226;2022-08-19T04:06:32;13.35;;;9.68;;
56242;SDS011;42155;53.096;23.226;2022-08-19T04:08:34;17.50;;;9.32;;
56242;SDS011;42155;53.096;23.226;2022-08-19T04:10:37;19.13;;;9.75;;
56242;SDS011;42155;53.096;23.226;2022-08-19T04:12:38;18.15;;;9.15;;
56242;SDS011;42155;53.096;23.226;2022-08-19T04:14:39;14.48;;;9.27;;
56242;SDS011;42155;53.096;23.226;2022-08-19T04:16:39;17.70;;;9.38;;
56242;SDS011;42155;53.096;23.226;2022-08-19T04:18:40;14.98;;;8.95;;
56242;SDS011;42155;53.096;23.226;2022-08-19T04:20:42;17.50;;;9.27;;
56242;SDS011;42155;53.096;23.226;2022-08-19T04:22:45;15.45;;;8.43;;
56242;SDS011;42155;53.096;23.226;2022-08-19T04:24:45;17.30;;;8.02;;
56242;SDS011;42155;53.096;23.226;2022-08-19T04:26:46;14.98;;;7.97;;
56242;SDS011;42155;53.096;23.226;2022-08-19T04:28:46;17.65;;;8.57;;
56242;SDS011;42155;53.096;23.226;2022-08-19T04:30:48;16.70;;;8.25;;
56242;SDS011;42155;53.096;23.226;2022-08-19T04:32:50;10.18;;;7.32;;
56242;SDS011;42155;53.096;23.226;2022-08-19T04:34:50;14.20;;;7.70;;
56242;SDS011;42155;53.096;23.226;2022-08-19T04:36:51;12.27;;;7.20;;
56242;SDS011;42155;53.096;23.226;2022-08-19T04:38:54;15.02;;;7.78;;
56242;SDS011;42155;53.096;23.226;2022-08-19T04:40:59;14.02;;;7.72;;
56242;SDS011;42155;53.096;23.226;2022-08-19T04:42:59;13.07;;;6.75;;
56242;SDS011;42155;53.096;23.226;2022-08-19T04:45:00;11.85;;;7.20;;
56242;SDS011;42155;53.096;23.226;2022-08-19T04:47:00;16.42;;;7.13;;
56242;SDS011;42155;53.096;23.226;2022-08-19T04:49:02;14.05;;;6.78;;
56242;SDS011;42155;53.096;23.226;2022-08-19T04:51:08;19.33;;;7.47;;
56242;SDS011;42155;53.096;23.226;2022-08-19T04:53:10;16.13;;;7.22;;
56242;SDS011;42155;53.096;23.226;2022-08-19T04:55:10;14.10;;;7.50;;
56242;SDS011;42155;53.096;23.226;2022-08-19T04:57:11;13.55;;;6.45;;
56242;SDS011;42155;53.096;23.226;2022-08-19T04:59:12;18.40;;;6.78;;
56242;SDS011;42155;53.096;23.226;2022-08-19T05:01:26;14.32;;;6.72;;
56242;SDS011;42155;53.096;23.226;2022-08-19T05:03:27;11.77;;;6.45;;
56242;SDS011;42155;53.096;23.226;2022-08-19T05:05:28;11.68;;;6.43;;
56242;SDS011;42155;53.096;23.226;2022-08-19T05:07:28;12.65;;;6.38;;
56242;SDS011;42155;53.096;23.226;2022-08-19T05:09:29;13.93;;;6.65;;
56242;SDS011;42155;53.096;23.226;2022-08-19T05:11:31;11.65;;;6.30;;
56242;SDS011;42155;53.096;23.226;2022-08-19T05:13:33;12.77;;;6.57;;
56242;SDS011;42155;53.096;23.226;2022-08-19T05:15:34;18.08;;;6.47;;
56242;SDS011;42155;53.096;23.226;2022-08-19T05:17:34;11.15;;;6.22;;
56242;SDS011;42155;53.096;23.226;2022-08-19T05:19:34;12.77;;;6.07;;
56242;SDS011;42155;53.096;23.226;2022-08-19T05:21:35;12.70;;;5.70;;
56242;SDS011;42155;53.096;23.226;2022-08-19T05:23:35;11.32;;;5.70;;
56242;SDS011;42155;53.096;23.226;2022-08-19T05:25:38;12.43;;;6.18;;
56242;SDS011;42155;53.096;23.226;2022-08-19T05:27:40;9.75;;;5.50;;
56242;SDS011;42155;53.096;23.226;2022-08-19T05:29:41;13.45;;;5.93;;
56242;SDS011;42155;53.096;23.226;2022-08-19T05:31:42;12.82;;;5.55;;
56242;SDS011;42155;53.096;23.226;2022-08-19T05:33:43;12.27;;;5.95;;
56242;SDS011;42155;53.096;23.226;2022-08-19T05:35:43;11.18;;;5.35;;
56242;SDS011;42155;53.096;23.226;2022-08-19T05:37:44;10.05;;;5.43;;
56242;SDS011;42155;53.096;23.226;2022-08-19T05:39:44;16.77;;;5.63;;
56242;SDS011;42155;53.096;23.226;2022-08-19T05:41:45;16.92;;;5.75;;
56242;SDS011;42155;53.096;23.226;2022-08-19T05:43:48;13.60;;;5.13;;
56242;SDS011;42155;53.096;23.226;2022-08-19T05:45:48;7.82;;;5.47;;
56242;SDS011;42155;53.096;23.226;2022-08-19T05:47:48;10.57;;;5.03;;
56242;SDS011;42155;53.096;23.226;2022-08-19T05:49:49;11.20;;;5.40;;
56242;SDS011;42155;53.096;23.226;2022-08-19T05:51:49;8.93;;;5.20;;
56242;SDS011;42155;53.096;23.226;2022-08-19T05:53:50;10.57;;;5.07;;
56242;SDS011;42155;53.096;23.226;2022-08-19T05:55:50;7.78;;;4.80;;
56242;SDS011;42155;53.096;23.226;2022-08-19T05:57:51;11.48;;;4.30;;
56242;SDS011;42155;53.096;23.226;2022-08-19T05:59:51;12.27;;;4.28;;
56242;SDS011;42155;53.096;23.226;2022-08-19T06:01:52;10.35;;;4.38;;
56242;SDS011;42155;53.096;23.226;2022-08-19T06:03:53;14.23;;;4.20;;
56242;SDS011;42155;53.096;23.226;2022-08-19T06:05:53;7.50;;;4.20;;
56242;SDS011;42155;53.096;23.226;2022-08-19T06:07:54;10.00;;;4.13;;
56242;SDS011;42155;53.096;23.226;2022-08-19T06:09:54;9.55;;;4.45;;
56242;SDS011;42155;53.096;23.226;2022-08-19T06:11:56;7.10;;;4.22;;
56242;SDS011;42155;53.096;23.226;2022-08-19T06:13:59;11.80;;;4.43;;
56242;SDS011;42155;53.096;23.226;2022-08-19T06:16:02;8.45;;;4.43;;
56242;SDS011;42155;53.096;23.226;2022-08-19T06:18:02;9.95;;;3.70;;
56242;SDS011;42155;53.096;23.226;2022-08-19T06:20:03;8.88;;;4.13;;
56242;SDS011;42155;53.096;23.226;2022-08-19T06:22:05;9.65;;;3.85;;
56242;SDS011;42155;53.096;23.226;2022-08-19T06:24:06;6.32;;;3.95;;
56242;SDS011;42155;53.096;23.226;2022-08-19T06:26:13;10.93;;;4.30;;
56242;SDS011;42155;53.096;23.226;2022-08-19T06:28:14;9.38;;;4.40;;
56242;SDS011;42155;53.096;23.226;2022-08-19T06:30:15;10.43;;;4.53;;
56242;SDS011;42155;53.096;23.226;2022-08-19T06:32:16;7.30;;;4.05;;
56242;SDS011;42155;53.096;23.226;2022-08-19T06:34:17;8.27;;;3.35;;
56242;SDS011;42155;53.096;23.226;2022-08-19T06:36:22;9.63;;;3.75;;
56242;SDS011;42155;53.096;23.226;2022-08-19T06:38:27;9.40;;;4.10;;
56242;SDS011;42155;53.096;23.226;2022-08-19T06:40:27;7.53;;;4.20;;
56242;SDS011;42155;53.096;23.226;2022-08-19T06:42:28;9.55;;;4.10;;
56242;SDS011;42155;53.096;23.226;2022-08-19T06:44:29;8.00;;;4.57;;
56242;SDS011;42155;53.096;23.226;2022-08-19T06:46:31;11.57;;;4.30;;
56242;SDS011;42155;53.096;23.226;2022-08-19T06:48:31;10.63;;;4.00;;
56242;SDS011;42155;53.096;23.226;2022-08-19T06:50:31;9.18;;;3.80;;
56242;SDS011;42155;53.096;23.226;2022-08-19T06:52:33;8.38;;;3.75;;
56242;SDS011;42155;53.096;23.226;2022-08-19T06:54:34;6.03;;;3.90;;
56242;SDS011;42155;53.096;23.226;2022-08-19T06:56:35;10.60;;;4.00;;
56242;SDS011;42155;53.096;23.226;2022-08-19T06:58:35;7.82;;;4.00;;
56242;SDS011;42155;53.096;23.226;2022-08-19T07:00:35;7.13;;;3.53;;
56242;SDS011;42155;53.096;23.226;2022-08-19T07:02:36;11.45;;;4.05;;
56242;SDS011;42155;53.096;23.226;2022-08-19T07:04:37;9.55;;;4.10;;
56242;SDS011;42155;53.096;23.226;2022-08-19T07:06:37;7.70;;;4.03;;
56242;SDS011;42155;53.096;23.226;2022-08-19T07:08:37;9.18;;;3.92;;
56242;SDS011;42155;53.096;23.226;2022-08-19T07:10:41;8.38;;;3.78;;
56242;SDS011;42155;53.096;23.226;2022-08-19T07:12:43;9.23;;;4.07;;
56242;SDS011;42155;53.096;23.226;2022-08-19T07:14:43;14.43;;;4.35;;
56242;SDS011;42155;53.096;23.226;2022-08-19T07:16:44;13.50;;;4.65;;
56242;SDS011;42155;53.096;23.226;2022-08-19T07:18:46;11.60;;;4.15;;
56242;SDS011;42155;53.096;23.226;2022-08-19T07:20:47;8.73;;;3.88;;
56242;SDS011;42155;53.096;23.226;2022-08-19T07:22:47;6.28;;;3.58;;
56242;SDS011;42155;53.096;23.226;2022-08-19T07:24:47;12.57;;;3.85;;
56242;SDS011;42155;53.096;23.226;2022-08-19T07:26:48;9.48;;;4.20;;
56242;SDS011;42155;53.096;23.226;2022-08-19T07:28:48;11.20;;;4.55;;
56242;SDS011;42155;53.096;23.226;2022-08-19T07:30:49;15.43;;;4.13;;
56242;SDS011;42155;53.096;23.226;2022-08-19T07:32:49;7.35;;;3.65;;
56242;SDS011;42155;53.096;23.226;2022-08-19T07:34:50;6.95;;;3.97;;
56242;SDS011;42155;53.096;23.226;2022-08-19T07:36:50;12.07;;;4.13;;
56242;SDS011;42155;53.096;23.226;2022-08-19T07:38:51;18.08;;;4.68;;
56242;SDS011;42155;53.096;23.226;2022-08-19T07:40:52;11.75;;;4.03;;
56242;SDS011;42155;53.096;23.226;2022-08-19T07:42:52;12.98;;;4.10;;
56242;SDS011;42155;53.096;23.226;2022-08-19T07:44:52;13.50;;;4.40;;
56242;SDS011;42155;53.096;23.226;2022-08-19T07:46:54;9.65;;;4.03;;
56242;SDS011;42155;53.096;23.226;2022-08-19T07:48:55;8.02;;;3.85;;
56242;SDS011;42155;53.096;23.226;2022-08-19T07:50:58;10.13;;;3.92;;
56242;SDS011;42155;53.096;23.226;2022-08-19T07:53:02;6.88;;;3.90;;
56242;SDS011;42155;53.096;23.226;2022-08-19T07:55:03;11.80;;;3.92;;
56242;SDS011;42155;53.096;23.226;2022-08-19T07:57:05;7.45;;;3.40;;
56242;SDS011;42155;53.096;23.226;2022-08-19T07:59:06;7.38;;;3.90;;
56242;SDS011;42155;53.096;23.226;2022-08-19T08:01:08;12.00;;;4.28;;
56242;SDS011;42155;53.096;23.226;2022-08-19T08:03:11;8.20;;;3.63;;
56242;SDS011;42155;53.096;23.226;2022-08-19T08:05:12;9.55;;;3.70;;
56242;SDS011;42155;53.096;23.226;2022-08-19T08:07:12;10.85;;;3.60;;
56242;SDS011;42155;53.096;23.226;2022-08-19T08:09:13;8.55;;;3.28;;
56242;SDS011;42155;53.096;23.226;2022-08-19T08:11:16;11.77;;;3.63;;
56242;SDS011;42155;53.096;23.226;2022-08-19T08:13:19;9.13;;;3.63;;
56242;SDS011;42155;53.096;23.226;2022-08-19T08:15:19;7.15;;;3.55;;
56242;SDS011;42155;53.096;23.226;2022-08-19T08:17:20;8.60;;;3.42;;
56242;SDS011;42155;53.096;23.226;2022-08-19T08:19:24;10.50;;;3.70;;
56242;SDS011;42155;53.096;23.226;2022-08-19T08:21:25;10.63;;;3.60;;
56242;SDS011;42155;53.096;23.226;2022-08-19T08:23:26;6.20;;;3.65;;
56242;SDS011;42155;53.096;23.226;2022-08-19T08:25:26;9.45;;;3.90;;
56242;SDS011;42155;53.096;23.226;2022-08-19T08:27:26;8.05;;;3.58;;
56242;SDS011;42155;53.096;23.226;2022-08-19T08:29:27;7.95;;;3.60;;
56242;SDS011;42155;53.096;23.226;2022-08-19T08:31:29;9.52;;;4.03;;
56242;SDS011;42155;53.096;23.226;2022-08-19T08:33:29;12.00;;;3.58;;
56242;SDS011;42155;53.096;23.226;2022-08-19T08:35:29;6.68;;;3.50;;
56242;SDS011;42155;53.096;23.226;2022-08-19T08:37:30;8.07;;;3.30;;
56242;SDS011;42155;53.096;23.226;2022-08-19T08:39:30;13.55;;;3.50;;
56242;SDS011;42155;53.096;23.226;2022-08-19T08:43:56;7.97;;;3.40;;
56242;SDS011;42155;53.096;23.226;2022-08-19T08:46:00;14.80;;;3.20;;
56242;SDS011;42155;53.096;23.226;2022-08-19T08:48:18;8.88;;;3.30;;
56242;SDS011;42155;53.096;23.226;2022-08-19T08:50:32;9.23;;;3.10;;
56242;SDS011;42155;53.096;23.226;2022-08-19T08:52:39;7.55;;;3.25;;
56242;SDS011;42155;53.096;23.226;2022-08-19T08:54:45;13.48;;;3.55;;
56242;SDS011;42155;53.096;23.226;2022-08-19T08:56:48;6.60;;;3.28;;
56242;SDS011;42155;53.096;23.226;2022-08-19T08:58:59;10.00;;;4.40;;
56242;SDS011;42155;53.096;23.226;2022-08-19T09:01:04;7.20;;;3.45;;
56242;SDS011;42155;53.096;23.226;2022-08-19T09:03:11;8.40;;;3.60;;
56242;SDS011;42155;53.096;23.226;2022-08-19T09:05:20;11.75;;;3.45;;
56242;SDS011;42155;53.096;23.226;2022-08-19T09:07:37;8.23;;;3.80;;
56242;SDS011;42155;53.096;23.226;2022-08-19T09:09:46;6.55;;;3.53;;
56242;SDS011;42155;53.096;23.226;2022-08-19T09:12:14;7.95;;;3.60;;
56242;SDS011;42155;53.096;23.226;2022-08-19T09:16:18;9.57;;;3.20;;
56242;SDS011;42155;53.096;23.226;2022-08-19T09:18:20;13.67;;;3.30;;
56242;SDS011;42155;53.096;23.226;2022-08-19T09:20:21;11.43;;;3.50;;
56242;SDS011;42155;53.096;23.226;2022-08-19T09:22:23;6.10;;;3.35;;
56242;SDS011;42155;53.096;23.226;2022-08-19T09:24:23;5.38;;;2.63;;
56242;SDS011;42155;53.096;23.226;2022-08-19T09:26:24;7.40;;;3.05;;
56242;SDS011;42155;53.096;23.226;2022-08-19T09:28:25;12.05;;;2.97;;
56242;SDS011;42155;53.096;23.226;2022-08-19T09:30:26;8.52;;;3.00;;
56242;SDS011;42155;53.096;23.226;2022-08-19T09:32:29;11.75;;;3.10;;
56242;SDS011;42155;53.096;23.226;2022-08-19T09:34:29;14.85;;;2.95;;
56242;SDS011;42155;53.096;23.226;2022-08-19T09:36:31;10.95;;;2.78;;
56242;SDS011;42155;53.096;23.226;2022-08-19T09:38:32;9.57;;;3.15;;
56242;SDS011;42155;53.096;23.226;2022-08-19T09:40:33;10.35;;;3.00;;
56242;SDS011;42155;53.096;23.226;2022-08-19T09:42:33;8.25;;;2.90;;
56242;SDS011;42155;53.096;23.226;2022-08-19T09:44:34;9.80;;;3.00;;
56242;SDS011;42155;53.096;23.226;2022-08-19T09:46:34;6.82;;;2.80;;
56242;SDS011;42155;53.096;23.226;2022-08-19T09:48:35;8.90;;;2.65;;
56242;SDS011;42155;53.096;23.226;2022-08-19T09:50:36;9.25;;;2.97;;
56242;SDS011;42155;53.096;23.226;2022-08-19T09:52:37;11.90;;;3.13;;
56242;SDS011;42155;53.096;23.226;2022-08-19T09:54:38;11.40;;;2.80;;
56242;SDS011;42155;53.096;23.226;2022-08-19T09:56:38;9.07;;;3.00;;
56242;SDS011;42155;53.096;23.226;2022-08-19T09:58:39;11.10;;;3.00;;
56242;SDS011;42155;53.096;23.226;2022-08-19T10:00:40;11.55;;;2.60;;
56242;SDS011;42155;53.096;23.226;2022-08-19T10:02:40;10.45;;;3.20;;
56242;SDS011;42155;53.096;23.226;2022-08-19T10:04:41;11.07;;;3.03;;
56242;SDS011;42155;53.096;23.226;2022-08-19T10:06:41;7.10;;;2.88;;
56242;SDS011;42155;53.096;23.226;2022-08-19T10:08:41;6.85;;;3.00;;
56242;SDS011;42155;53.096;23.226;2022-08-19T10:10:42;5.30;;;3.17;;
56242;SDS011;42155;53.096;23.226;2022-08-19T10:12:43;8.23;;;3.47;;
56242;SDS011;42155;53.096;23.226;2022-08-19T10:14:43;13.35;;;3.35;;
56242;SDS011;42155;53.096;23.226;2022-08-19T10:16:44;12.20;;;3.42;;
56242;SDS011;42155;53.096;23.226;2022-08-19T10:18:44;11.63;;;3.10;;
56242;SDS011;42155;53.096;23.226;2022-08-19T10:20:48;8.35;;;2.80;;
56242;SDS011;42155;53.096;23.226;2022-08-19T10:22:49;11.75;;;3.30;;
56242;SDS011;42155;53.096;23.226;2022-08-19T10:24:49;9.27;;;2.88;;
56242;SDS011;42155;53.096;23.226;2022-08-19T10:26:50;12.00;;;3.20;;
56242;SDS011;42155;53.096;23.226;2022-08-19T10:28:50;8.77;;;2.70;;
56242;SDS011;42155;53.096;23.226;2022-08-19T10:30:51;9.82;;;2.97;;
56242;SDS011;42155;53.096;23.226;2022-08-19T10:32:51;8.07;;;2.85;;
56242;SDS011;42155;53.096;23.226;2022-08-19T10:34:52;10.60;;;3.40;;
56242;SDS011;42155;53.096;23.226;2022-08-19T10:36:52;6.75;;;3.15;;
56242;SDS011;42155;53.096;23.226;2022-08-19T10:38:53;7.10;;;2.63;;
56242;SDS011;42155;53.096;23.226;2022-08-19T10:40:55;10.85;;;2.90;;
56242;SDS011;42155;53.096;23.226;2022-08-19T10:42:55;9.13;;;2.83;;
56242;SDS011;42155;53.096;23.226;2022-08-19T10:44:55;12.27;;;3.05;;
56242;SDS011;42155;53.096;23.226;2022-08-19T10:46:56;11.88;;;2.97;;
56242;SDS011;42155;53.096;23.226;2022-08-19T10:48:56;9.40;;;2.80;;
56242;SDS011;42155;53.096;23.226;2022-08-19T10:50:57;9.07;;;2.70;;
56242;SDS011;42155;53.096;23.226;2022-08-19T10:53:02;13.23;;;3.13;;
56242;SDS011;42155;53.096;23.226;2022-08-19T10:55:05;7.03;;;2.40;;
56242;SDS011;42155;53.096;23.226;2022-08-19T10:57:06;12.38;;;2.85;;
56242;SDS011;42155;53.096;23.226;2022-08-19T10:59:07;7.95;;;2.22;;
56242;SDS011;42155;53.096;23.226;2022-08-19T11:01:07;12.88;;;3.13;;
56242;SDS011;42155;53.096;23.226;2022-08-19T11:03:07;8.88;;;2.67;;
56242;SDS011;42155;53.096;23.226;2022-08-19T11:05:08;10.18;;;2.78;;
56242;SDS011;42155;53.096;23.226;2022-08-19T11:07:09;8.20;;;2.30;;
56242;SDS011;42155;53.096;23.226;2022-08-19T11:09:09;10.25;;;2.67;;
56242;SDS011;42155;53.096;23.226;2022-08-19T11:11:10;16.25;;;2.97;;
56242;SDS011;42155;53.096;23.226;2022-08-19T11:13:11;7.55;;;2.53;;
56242;SDS011;42155;53.096;23.226;2022-08-19T11:15:12;13.40;;;3.13;;
56242;SDS011;42155;53.096;23.226;2022-08-19T11:17:12;14.45;;;3.05;;
56242;SDS011;42155;53.096;23.226;2022-08-19T11:19:12;10.68;;;3.50;;
56242;SDS011;42155;53.096;23.226;2022-08-19T11:23:15;13.15;;;3.05;;
56242;SDS011;42155;53.096;23.226;2022-08-19T11:25:16;10.48;;;2.63;;
56242;SDS011;42155;53.096;23.226;2022-08-19T11:27:16;8.85;;;2.95;;
56242;SDS011;42155;53.096;23.226;2022-08-19T11:29:18;7.45;;;2.40;;
56242;SDS011;42155;53.096;23.226;2022-08-19T11:31:21;7.70;;;2.70;;
56242;SDS011;42155;53.096;23.226;2022-08-19T11:33:23;10.48;;;2.60;;
56242;SDS011;42155;53.096;23.226;2022-08-19T11:35:24;8.02;;;2.72;;
56242;SDS011;42155;53.096;23.226;2022-08-19T11:37:24;10.65;;;3.00;;
56242;SDS011;42155;53.096;23.226;2022-08-19T11:39:25;12.98;;;2.80;;
56242;SDS011;42155;53.096;23.226;2022-08-19T11:41:27;15.57;;;5.95;;
56242;SDS011;42155;53.096;23.226;2022-08-19T11:43:27;10.82;;;3.17;;
56242;SDS011;42155;53.096;23.226;2022-08-19T11:45:28;9.40;;;3.25;;
56242;SDS011;42155;53.096;23.226;2022-08-19T11:47:29;9.25;;;2.90;;
56242;SDS011;42155;53.096;23.226;2022-08-19T11:49:29;11.75;;;2.80;;
56242;SDS011;42155;53.096;23.226;2022-08-19T11:51:30;8.25;;;2.25;;
56242;SDS011;42155;53.096;23.226;2022-08-19T11:53:30;10.10;;;2.83;;
56242;SDS011;42155;53.096;23.226;2022-08-19T11:55:31;8.98;;;2.90;;
56242;SDS011;42155;53.096;23.226;2022-08-19T11:57:31;10.25;;;2.78;;
56242;SDS011;42155;53.096;23.226;2022-08-19T11:59:32;11.45;;;2.70;;
56242;SDS011;42155;53.096;23.226;2022-08-19T12:01:32;11.20;;;2.92;;